Onweer radar Meer informatie blitzortung!


Regen radar Meer informatie rain snow radar


Bezoek ook deze websites:

Template documentation
and downloads

And another site


Het weer levert geen direct gevaar op.    Er zijn geen waarschuwingen afgegeven.

METAR rapporten vliegvelden

   
EHVK - Volkel Rnlafb, Netherlands
Afstand tot: ZW 18 km
Gewijzigd: Oct 25 2020 6:55 am
stevige (mot)regen, Bewolking  
stevige (mot)regen, Bewolking  
   Wind: ZZW 31.5 km/h<br />Gust to 31.5 km/h
Wind: ZZW 31.5 km/h
Gust to 31.5 km/h
Temperatuur: 14°C
Dauwpunt: 11°C
Vochtigheid: 82%
Barometer: 1001 hPa
Bewolking: Bewolking
Zicht: meer dan 10 km
Bewolking: Grotendeels bewolkt 640.1 m,
Bewolking 731.5 m
EHVK 250555Z AUTO 21017G28KT 160V250 9999 +DZ BKN021 OVC024 14/11 Q1001 WHT
EDLV - Niederrhein, Germany
Afstand tot: ZO 25 km
Gewijzigd: Oct 25 2020 6:50 am
Gedeeltelijk bewolkt  
Gedeeltelijk bewolkt  
   Wind: Zuiden 27.8 km/h
Wind: Zuiden 27.8 km/h
Temperatuur: 16°C
Dauwpunt: 10°C
Vochtigheid: 68%
Barometer: 1002 hPa
Bewolking: Gedeeltelijk bewolkt
Zicht: meer dan 10 km
Bewolking: Gedeeltelijk bewolkt 914.4 m
EDLV 250550Z 19015KT 9999 SCT030 16/10 Q1002
EHDL - Deelen Rnlafb, Netherlands
Afstand tot: N 35 km
Gewijzigd: Oct 25 2020 6:55 am
Regenbuien, Regen, Grotendeels bewolkt  
Regenbuien, Regen, Grotendeels bewolkt  
   Wind: ZW 31.5 km/h
Wind: ZW 31.5 km/h
Temperatuur: 13°C
Dauwpunt: 11°C
Vochtigheid: 88%
Barometer: 1000 hPa
Bewolking: Grotendeels bewolkt
Zicht: meer dan 10 km
Bewolking: Licht bewolkt 457.2 m,
Grotendeels bewolkt 640.1 m,
Grotendeels bewolkt 762 m
EHDL 250555Z AUTO 23017KT 120V280 9999 SHRA FEW015CB BKN021 BKN025 13/11 Q1000 REDZ WHT
EHEH - Eindhoven Rnlafb, Netherlands
Afstand tot: ZW 48 km
Gewijzigd: Oct 25 2020 6:55 am
Wat regen mogelijk, Bewolking  
Wat regen mogelijk, Bewolking  
   Wind: ZW 25.9 km/h
Wind: ZW 25.9 km/h
Temperatuur: 12°C
Dauwpunt: 10°C
Vochtigheid: 88%
Barometer: 1002 hPa
Bewolking: Bewolking
Zicht: meer dan 10 km
Bewolking: Bewolking 1219.2 m
EHEH 250555Z AUTO 22014KT 9999 -RA OVC040 12/10 Q1002 RERA REDZ BLU TEMPO 4500 RA -SHRA SCT012 SCT015CB BKN020 BECMG 21012G24KT
EHGR - Gilze-Rijen Rnla, Netherlands
Afstand tot: WZW 70 km
Gewijzigd: Oct 25 2020 6:55 am
Wat regen mogelijk, Bewolking  
Wat regen mogelijk, Bewolking  
   Wind: Zuiden 13 km/h
Wind: Zuiden 13 km/h
Temperatuur: 12°C
Dauwpunt: 10°C
Vochtigheid: 88%
Barometer: 1001 hPa
Bewolking: Bewolking
Zicht: meer dan 10 km
Bewolking: Licht bewolkt 1097.3 m,
Gedeeltelijk bewolkt 1341.1 m,
Bewolking 1493.5 m
EHGR 250555Z AUTO 19007KT 150V230 9999 -RA FEW036 SCT044 OVC049 12/10 Q1001 RERA REDZ BLU
EBBL - Kleine-Brogel(Ba, Belgium
Afstand tot: ZZW 71 km
Gewijzigd: Oct 25 2020 6:55 am
Wat regen mogelijk, Bewolking  
Wat regen mogelijk, Bewolking  
   Wind: ZZW 18.5 km/h
Wind: ZZW 18.5 km/h
Temperatuur: 13°C
Dauwpunt: 11°C
Vochtigheid: 88%
Barometer: 1002 hPa
Bewolking: Bewolking
Zicht: meer dan 10 km
Bewolking: Grotendeels bewolkt 823 m,
Bewolking 1463 m
EBBL 250555Z AUTO 20010KT 9999 -RA BKN027/// OVC048/// 13/11 Q1002 BLU

Script ontwikkeld door  Saratoga-weather.org Aangepast voor de template door  Weerstation Leuven

U vindt ons ook hier:

UK Metoffice

Weather Underground